sensor_id;sensor_type;location;lat;lon;timestamp;temperature;humidity
24860;DHT22;12936;52.006;4.350;2023-05-10T00:00:03;14.60;99.90
24860;DHT22;12936;52.006;4.350;2023-05-10T00:02:53;14.60;99.90
24860;DHT22;12936;52.006;4.350;2023-05-10T00:05:25;14.60;99.90
24860;DHT22;12936;52.006;4.350;2023-05-10T00:07:53;14.60;99.90
24860;DHT22;12936;52.006;4.350;2023-05-10T00:10:21;14.50;99.90
24860;DHT22;12936;52.006;4.350;2023-05-10T00:12:50;14.50;99.90
24860;DHT22;12936;52.006;4.350;2023-05-10T00:15:20;14.50;99.90
24860;DHT22;12936;52.006;4.350;2023-05-10T00:17:48;14.50;99.90
24860;DHT22;12936;52.006;4.350;2023-05-10T00:20:19;14.40;99.90
24860;DHT22;12936;52.006;4.350;2023-05-10T00:22:47;14.50;99.90
24860;DHT22;12936;52.006;4.350;2023-05-10T00:25:17;14.50;99.90
24860;DHT22;12936;52.006;4.350;2023-05-10T00:27:49;14.40;99.90
24860;DHT22;12936;52.006;4.350;2023-05-10T00:30:22;14.40;99.90
24860;DHT22;12936;52.006;4.350;2023-05-10T00:32:50;14.40;99.90
24860;DHT22;12936;52.006;4.350;2023-05-10T00:35:25;14.40;99.90
24860;DHT22;12936;52.006;4.350;2023-05-10T00:37:56;14.30;99.90
24860;DHT22;12936;52.006;4.350;2023-05-10T00:40:25;14.30;99.90
24860;DHT22;12936;52.006;4.350;2023-05-10T00:42:56;14.30;99.90
24860;DHT22;12936;52.006;4.350;2023-05-10T00:45:49;14.30;99.90
24860;DHT22;12936;52.006;4.350;2023-05-10T00:48:25;14.30;99.90
24860;DHT22;12936;52.006;4.350;2023-05-10T00:51:16;14.30;99.90
24860;DHT22;12936;52.006;4.350;2023-05-10T00:54:04;14.30;99.90
24860;DHT22;12936;52.006;4.350;2023-05-10T00:56:33;14.30;99.90
24860;DHT22;12936;52.006;4.350;2023-05-10T00:59:02;14.20;99.90
24860;DHT22;12936;52.006;4.350;2023-05-10T01:01:31;14.20;99.90
24860;DHT22;12936;52.006;4.350;2023-05-10T01:04:07;14.20;99.90
24860;DHT22;12936;52.006;4.350;2023-05-10T01:06:41;14.20;99.90
24860;DHT22;12936;52.006;4.350;2023-05-10T01:09:11;14.20;99.90
24860;DHT22;12936;52.006;4.350;2023-05-10T01:11:40;14.20;99.90
24860;DHT22;12936;52.006;4.350;2023-05-10T01:14:09;14.20;99.90
24860;DHT22;12936;52.006;4.350;2023-05-10T01:16:39;14.20;99.90
24860;DHT22;12936;52.006;4.350;2023-05-10T01:19:16;14.20;99.90
24860;DHT22;12936;52.006;4.350;2023-05-10T01:21:53;14.20;99.90
24860;DHT22;12936;52.006;4.350;2023-05-10T01:31:28;14.20;99.90
24860;DHT22;12936;52.006;4.350;2023-05-10T01:34:07;14.30;99.90
24860;DHT22;12936;52.006;4.350;2023-05-10T01:36:42;14.20;99.90
24860;DHT22;12936;52.006;4.350;2023-05-10T01:39:16;14.20;99.90
24860;DHT22;12936;52.006;4.350;2023-05-10T01:41:51;14.30;99.90
24860;DHT22;12936;52.006;4.350;2023-05-10T01:44:29;14.30;99.90
24860;DHT22;12936;52.006;4.350;2023-05-10T01:47:11;14.30;99.90
24860;DHT22;12936;52.006;4.350;2023-05-10T01:49:46;14.30;99.90
24860;DHT22;12936;52.006;4.350;2023-05-10T01:52:18;14.30;99.90
24860;DHT22;12936;52.006;4.350;2023-05-10T01:54:50;14.30;99.90
24860;DHT22;12936;52.006;4.350;2023-05-10T01:57:22;14.40;99.90
24860;DHT22;12936;52.006;4.350;2023-05-10T01:59:55;14.40;99.90
24860;DHT22;12936;52.006;4.350;2023-05-10T02:02:27;14.40;99.90
24860;DHT22;12936;52.006;4.350;2023-05-10T02:05:00;14.40;99.90
24860;DHT22;12936;52.006;4.350;2023-05-10T02:07:35;14.50;99.90
24860;DHT22;12936;52.006;4.350;2023-05-10T02:10:08;14.40;99.90
24860;DHT22;12936;52.006;4.350;2023-05-10T02:12:43;14.50;99.90
24860;DHT22;12936;52.006;4.350;2023-05-10T02:15:19;14.50;99.90
24860;DHT22;12936;52.006;4.350;2023-05-10T02:17:54;14.50;99.90
24860;DHT22;12936;52.006;4.350;2023-05-10T02:20:24;14.50;99.90
24860;DHT22;12936;52.006;4.350;2023-05-10T02:22:55;14.60;99.90
24860;DHT22;12936;52.006;4.350;2023-05-10T02:25:28;14.60;99.90
24860;DHT22;12936;52.006;4.350;2023-05-10T02:28:03;14.60;99.90
24860;DHT22;12936;52.006;4.350;2023-05-10T02:30:52;14.60;99.90
24860;DHT22;12936;52.006;4.350;2023-05-10T02:33:43;14.60;99.90
24860;DHT22;12936;52.006;4.350;2023-05-10T02:36:15;14.50;99.90
24860;DHT22;12936;52.006;4.350;2023-05-10T02:38:46;14.60;99.90
24860;DHT22;12936;52.006;4.350;2023-05-10T02:41:15;14.60;99.90
24860;DHT22;12936;52.006;4.350;2023-05-10T02:43:44;14.60;99.90
24860;DHT22;12936;52.006;4.350;2023-05-10T02:46:20;14.60;99.90
24860;DHT22;12936;52.006;4.350;2023-05-10T02:48:49;14.60;99.90
24860;DHT22;12936;52.006;4.350;2023-05-10T02:51:19;14.60;99.90
24860;DHT22;12936;52.006;4.350;2023-05-10T02:54:07;14.60;99.90
24860;DHT22;12936;52.006;4.350;2023-05-10T02:56:42;14.50;99.90
24860;DHT22;12936;52.006;4.350;2023-05-10T02:59:11;14.50;99.90
24860;DHT22;12936;52.006;4.350;2023-05-10T03:01:40;14.50;99.90
24860;DHT22;12936;52.006;4.350;2023-05-10T03:04:11;14.50;99.90
24860;DHT22;12936;52.006;4.350;2023-05-10T03:06:44;14.50;99.90
24860;DHT22;12936;52.006;4.350;2023-05-10T03:09:13;14.50;99.90
24860;DHT22;12936;52.006;4.350;2023-05-10T03:11:50;14.60;99.90
24860;DHT22;12936;52.006;4.350;2023-05-10T03:14:34;14.50;99.90
24860;DHT22;12936;52.006;4.350;2023-05-10T03:17:14;14.50;99.90
24860;DHT22;12936;52.006;4.350;2023-05-10T03:19:47;14.50;99.90
24860;DHT22;12936;52.006;4.350;2023-05-10T03:22:23;14.50;99.90
24860;DHT22;12936;52.006;4.350;2023-05-10T03:24:54;14.50;99.90
24860;DHT22;12936;52.006;4.350;2023-05-10T03:27:25;14.50;99.90
24860;DHT22;12936;52.006;4.350;2023-05-10T03:29:55;14.50;99.90
24860;DHT22;12936;52.006;4.350;2023-05-10T03:32:23;14.50;99.90
24860;DHT22;12936;52.006;4.350;2023-05-10T03:34:53;14.50;99.90
24860;DHT22;12936;52.006;4.350;2023-05-10T03:37:23;14.50;99.90
24860;DHT22;12936;52.006;4.350;2023-05-10T03:39:54;14.50;99.90
24860;DHT22;12936;52.006;4.350;2023-05-10T03:42:23;14.40;99.90
24860;DHT22;12936;52.006;4.350;2023-05-10T03:44:52;14.40;99.90
24860;DHT22;12936;52.006;4.350;2023-05-10T03:47:21;14.40;99.90
24860;DHT22;12936;52.006;4.350;2023-05-10T03:49:52;14.30;99.90
24860;DHT22;12936;52.006;4.350;2023-05-10T03:52:20;14.40;99.90
24860;DHT22;12936;52.006;4.350;2023-05-10T03:54:50;14.30;99.90
24860;DHT22;12936;52.006;4.350;2023-05-10T03:57:38;14.40;99.90
24860;DHT22;12936;52.006;4.350;2023-05-10T04:00:07;14.30;99.90
24860;DHT22;12936;52.006;4.350;2023-05-10T04:02:35;14.30;99.90
24860;DHT22;12936;52.006;4.350;2023-05-10T04:05:05;14.20;99.90
24860;DHT22;12936;52.006;4.350;2023-05-10T04:07:34;14.20;99.90
24860;DHT22;12936;52.006;4.350;2023-05-10T04:10:05;14.20;99.90
24860;DHT22;12936;52.006;4.350;2023-05-10T04:12:34;14.20;99.90
24860;DHT22;12936;52.006;4.350;2023-05-10T04:15:04;14.20;99.90
24860;DHT22;12936;52.006;4.350;2023-05-10T04:17:33;14.20;99.90
24860;DHT22;12936;52.006;4.350;2023-05-10T04:20:03;14.10;99.90
24860;DHT22;12936;52.006;4.350;2023-05-10T04:22:32;14.10;99.90
24860;DHT22;12936;52.006;4.350;2023-05-10T04:25:00;14.10;99.90
24860;DHT22;12936;52.006;4.350;2023-05-10T04:27:29;14.10;99.90
24860;DHT22;12936;52.006;4.350;2023-05-10T04:29:58;14.10;99.90
24860;DHT22;12936;52.006;4.350;2023-05-10T04:32:26;14.00;99.90
24860;DHT22;12936;52.006;4.350;2023-05-10T04:34:56;14.00;99.90
24860;DHT22;12936;52.006;4.350;2023-05-10T04:37:25;14.00;99.90
24860;DHT22;12936;52.006;4.350;2023-05-10T04:39:55;14.00;99.90
24860;DHT22;12936;52.006;4.350;2023-05-10T04:42:34;14.00;99.90
24860;DHT22;12936;52.006;4.350;2023-05-10T04:45:08;14.00;99.90
24860;DHT22;12936;52.006;4.350;2023-05-10T04:48:03;14.00;99.90
24860;DHT22;12936;52.006;4.350;2023-05-10T04:50:33;13.90;99.90
24860;DHT22;12936;52.006;4.350;2023-05-10T04:53:04;13.90;99.90
24860;DHT22;12936;52.006;4.350;2023-05-10T04:55:37;14.00;99.90
24860;DHT22;12936;52.006;4.350;2023-05-10T04:58:29;13.90;99.90
24860;DHT22;12936;52.006;4.350;2023-05-10T05:01:05;13.90;99.90
24860;DHT22;12936;52.006;4.350;2023-05-10T05:04:17;13.90;99.90
24860;DHT22;12936;52.006;4.350;2023-05-10T05:06:51;13.90;99.90
24860;DHT22;12936;52.006;4.350;2023-05-10T05:09:23;13.90;99.90
24860;DHT22;12936;52.006;4.350;2023-05-10T05:12:13;13.90;99.90
24860;DHT22;12936;52.006;4.350;2023-05-10T05:14:42;13.90;99.90
24860;DHT22;12936;52.006;4.350;2023-05-10T05:17:13;13.90;99.90
24860;DHT22;12936;52.006;4.350;2023-05-10T05:19:41;13.80;99.90
24860;DHT22;12936;52.006;4.350;2023-05-10T05:22:09;13.80;99.90
24860;DHT22;12936;52.006;4.350;2023-05-10T05:24:38;13.90;99.90
24860;DHT22;12936;52.006;4.350;2023-05-10T05:27:08;13.90;99.90
24860;DHT22;12936;52.006;4.350;2023-05-10T05:29:36;13.90;99.90
24860;DHT22;12936;52.006;4.350;2023-05-10T05:32:06;13.90;99.90
24860;DHT22;12936;52.006;4.350;2023-05-10T05:34:35;13.90;99.90
24860;DHT22;12936;52.006;4.350;2023-05-10T05:37:05;13.90;99.90
24860;DHT22;12936;52.006;4.350;2023-05-10T05:39:36;13.90;99.90
24860;DHT22;12936;52.006;4.350;2023-05-10T05:42:04;13.90;99.90
24860;DHT22;12936;52.006;4.350;2023-05-10T05:44:32;14.00;99.90
24860;DHT22;12936;52.006;4.350;2023-05-10T05:47:00;14.00;99.90
24860;DHT22;12936;52.006;4.350;2023-05-10T05:49:29;14.00;99.90
24860;DHT22;12936;52.006;4.350;2023-05-10T05:51:58;14.00;99.90
24860;DHT22;12936;52.006;4.350;2023-05-10T05:54:27;14.00;99.90
24860;DHT22;12936;52.006;4.350;2023-05-10T05:56:55;14.00;99.90
24860;DHT22;12936;52.006;4.350;2023-05-10T05:59:26;14.10;99.90
24860;DHT22;12936;52.006;4.350;2023-05-10T06:01:55;14.10;99.90
24860;DHT22;12936;52.006;4.350;2023-05-10T06:04:23;14.10;99.90
24860;DHT22;12936;52.006;4.350;2023-05-10T06:06:52;14.20;99.90
24860;DHT22;12936;52.006;4.350;2023-05-10T06:09:21;14.20;99.90
24860;DHT22;12936;52.006;4.350;2023-05-10T06:11:50;14.30;99.90
24860;DHT22;12936;52.006;4.350;2023-05-10T06:14:20;14.30;99.90
24860;DHT22;12936;52.006;4.350;2023-05-10T06:16:48;14.30;99.90
24860;DHT22;12936;52.006;4.350;2023-05-10T06:19:16;14.30;99.90
24860;DHT22;12936;52.006;4.350;2023-05-10T06:21:44;14.40;99.90
24860;DHT22;12936;52.006;4.350;2023-05-10T06:24:14;14.40;99.90
24860;DHT22;12936;52.006;4.350;2023-05-10T06:26:42;14.40;99.90
24860;DHT22;12936;52.006;4.350;2023-05-10T06:29:10;14.40;99.90
24860;DHT22;12936;52.006;4.350;2023-05-10T06:31:39;14.40;99.90
24860;DHT22;12936;52.006;4.350;2023-05-10T06:34:07;14.40;99.90
24860;DHT22;12936;52.006;4.350;2023-05-10T06:36:35;14.50;99.90
24860;DHT22;12936;52.006;4.350;2023-05-10T06:39:03;14.50;99.90
24860;DHT22;12936;52.006;4.350;2023-05-10T06:41:33;14.50;99.90
24860;DHT22;12936;52.006;4.350;2023-05-10T06:44:01;14.60;99.90
24860;DHT22;12936;52.006;4.350;2023-05-10T06:46:30;14.60;99.90
24860;DHT22;12936;52.006;4.350;2023-05-10T06:48:58;14.60;99.90
24860;DHT22;12936;52.006;4.350;2023-05-10T06:51:26;14.60;99.90
24860;DHT22;12936;52.006;4.350;2023-05-10T06:53:54;14.60;99.90
24860;DHT22;12936;52.006;4.350;2023-05-10T06:56:22;14.60;99.90
24860;DHT22;12936;52.006;4.350;2023-05-10T06:58:51;14.60;99.90
24860;DHT22;12936;52.006;4.350;2023-05-10T07:01:20;14.70;99.90
24860;DHT22;12936;52.006;4.350;2023-05-10T07:03:48;14.70;99.90
24860;DHT22;12936;52.006;4.350;2023-05-10T07:06:16;14.70;99.90
24860;DHT22;12936;52.006;4.350;2023-05-10T07:08:58;14.70;99.90
24860;DHT22;12936;52.006;4.350;2023-05-10T07:11:26;14.70;99.90
24860;DHT22;12936;52.006;4.350;2023-05-10T07:13:56;14.70;99.90
24860;DHT22;12936;52.006;4.350;2023-05-10T07:16:24;14.80;99.90
24860;DHT22;12936;52.006;4.350;2023-05-10T07:18:52;14.80;99.90
24860;DHT22;12936;52.006;4.350;2023-05-10T07:21:20;14.80;99.90
24860;DHT22;12936;52.006;4.350;2023-05-10T07:23:50;14.90;99.90
24860;DHT22;12936;52.006;4.350;2023-05-10T07:26:19;14.90;99.90
24860;DHT22;12936;52.006;4.350;2023-05-10T07:28:47;14.90;99.90
24860;DHT22;12936;52.006;4.350;2023-05-10T07:31:16;14.90;99.90
24860;DHT22;12936;52.006;4.350;2023-05-10T07:33:46;14.90;99.90
24860;DHT22;12936;52.006;4.350;2023-05-10T07:36:14;14.90;99.90
24860;DHT22;12936;52.006;4.350;2023-05-10T07:38:42;14.90;99.90
24860;DHT22;12936;52.006;4.350;2023-05-10T07:41:11;14.90;99.90
24860;DHT22;12936;52.006;4.350;2023-05-10T07:43:39;14.90;99.90
24860;DHT22;12936;52.006;4.350;2023-05-10T07:46:07;14.90;99.90
24860;DHT22;12936;52.006;4.350;2023-05-10T07:48:38;14.90;99.90
24860;DHT22;12936;52.006;4.350;2023-05-10T07:51:06;15.00;99.90
24860;DHT22;12936;52.006;4.350;2023-05-10T07:53:36;14.90;99.90
24860;DHT22;12936;52.006;4.350;2023-05-10T07:56:20;15.00;99.90
24860;DHT22;12936;52.006;4.350;2023-05-10T07:58:48;15.00;99.90
24860;DHT22;12936;52.006;4.350;2023-05-10T08:01:16;15.00;99.90
24860;DHT22;12936;52.006;4.350;2023-05-10T08:03:45;15.10;99.90
24860;DHT22;12936;52.006;4.350;2023-05-10T08:06:14;15.10;99.90
24860;DHT22;12936;52.006;4.350;2023-05-10T08:08:42;15.10;99.90
24860;DHT22;12936;52.006;4.350;2023-05-10T08:11:12;15.10;99.90
24860;DHT22;12936;52.006;4.350;2023-05-10T08:13:40;15.10;99.90
24860;DHT22;12936;52.006;4.350;2023-05-10T08:16:08;15.20;99.90
24860;DHT22;12936;52.006;4.350;2023-05-10T08:18:37;15.20;99.90
24860;DHT22;12936;52.006;4.350;2023-05-10T08:21:06;15.20;99.90
24860;DHT22;12936;52.006;4.350;2023-05-10T08:23:34;15.20;99.90
24860;DHT22;12936;52.006;4.350;2023-05-10T08:26:02;15.20;99.90
24860;DHT22;12936;52.006;4.350;2023-05-10T08:28:30;15.20;99.90
24860;DHT22;12936;52.006;4.350;2023-05-10T08:30:58;15.20;99.90
24860;DHT22;12936;52.006;4.350;2023-05-10T08:33:26;15.30;99.90
24860;DHT22;12936;52.006;4.350;2023-05-10T08:35:54;15.30;99.90
24860;DHT22;12936;52.006;4.350;2023-05-10T08:38:24;15.30;99.90
24860;DHT22;12936;52.006;4.350;2023-05-10T08:40:54;15.30;99.90
24860;DHT22;12936;52.006;4.350;2023-05-10T08:43:27;15.30;99.90
24860;DHT22;12936;52.006;4.350;2023-05-10T08:45:56;15.30;99.90
24860;DHT22;12936;52.006;4.350;2023-05-10T08:48:24;15.30;99.90
24860;DHT22;12936;52.006;4.350;2023-05-10T08:50:53;15.30;99.90
24860;DHT22;12936;52.006;4.350;2023-05-10T08:53:25;15.40;99.90
24860;DHT22;12936;52.006;4.350;2023-05-10T08:55:55;15.30;99.90
24860;DHT22;12936;52.006;4.350;2023-05-10T08:58:23;15.30;99.90
24860;DHT22;12936;52.006;4.350;2023-05-10T09:00:51;15.30;99.90
24860;DHT22;12936;52.006;4.350;2023-05-10T09:03:19;15.20;99.90
24860;DHT22;12936;52.006;4.350;2023-05-10T09:05:48;15.20;99.90
24860;DHT22;12936;52.006;4.350;2023-05-10T09:08:17;15.20;99.90
24860;DHT22;12936;52.006;4.350;2023-05-10T09:10:48;15.20;99.90
24860;DHT22;12936;52.006;4.350;2023-05-10T09:13:17;15.10;99.90
24860;DHT22;12936;52.006;4.350;2023-05-10T09:15:47;15.10;99.90
24860;DHT22;12936;52.006;4.350;2023-05-10T09:18:16;15.10;99.90
24860;DHT22;12936;52.006;4.350;2023-05-10T09:20:44;15.00;99.90
24860;DHT22;12936;52.006;4.350;2023-05-10T09:23:12;15.10;99.90
24860;DHT22;12936;52.006;4.350;2023-05-10T09:25:41;15.10;99.90
24860;DHT22;12936;52.006;4.350;2023-05-10T09:28:11;15.10;99.90
24860;DHT22;12936;52.006;4.350;2023-05-10T09:30:39;15.10;99.90
24860;DHT22;12936;52.006;4.350;2023-05-10T09:33:07;15.10;99.90
24860;DHT22;12936;52.006;4.350;2023-05-10T09:35:35;15.10;99.90
24860;DHT22;12936;52.006;4.350;2023-05-10T09:38:06;15.10;99.90
24860;DHT22;12936;52.006;4.350;2023-05-10T09:40:34;15.10;99.90
24860;DHT22;12936;52.006;4.350;2023-05-10T09:43:04;15.10;99.90
24860;DHT22;12936;52.006;4.350;2023-05-10T09:45:35;15.10;99.90
24860;DHT22;12936;52.006;4.350;2023-05-10T09:48:05;15.10;99.90
24860;DHT22;12936;52.006;4.350;2023-05-10T09:50:33;15.20;99.90
24860;DHT22;12936;52.006;4.350;2023-05-10T09:53:02;15.20;99.90
24860;DHT22;12936;52.006;4.350;2023-05-10T09:55:39;15.20;99.90
24860;DHT22;12936;52.006;4.350;2023-05-10T09:58:07;15.20;99.90
24860;DHT22;12936;52.006;4.350;2023-05-10T10:00:40;15.20;99.90
24860;DHT22;12936;52.006;4.350;2023-05-10T10:03:12;15.20;99.90
24860;DHT22;12936;52.006;4.350;2023-05-10T10:05:42;15.10;99.90
24860;DHT22;12936;52.006;4.350;2023-05-10T10:08:12;15.10;99.90
24860;DHT22;12936;52.006;4.350;2023-05-10T10:10:40;15.10;99.90
24860;DHT22;12936;52.006;4.350;2023-05-10T10:13:12;15.10;99.90
24860;DHT22;12936;52.006;4.350;2023-05-10T10:15:42;15.10;99.90
24860;DHT22;12936;52.006;4.350;2023-05-10T10:18:13;15.10;99.90
24860;DHT22;12936;52.006;4.350;2023-05-10T10:20:41;15.10;99.90
24860;DHT22;12936;52.006;4.350;2023-05-10T10:23:11;15.10;99.90
24860;DHT22;12936;52.006;4.350;2023-05-10T10:25:43;15.10;99.90
24860;DHT22;12936;52.006;4.350;2023-05-10T10:28:23;15.10;99.90
24860;DHT22;12936;52.006;4.350;2023-05-10T10:30:56;15.10;99.90
24860;DHT22;12936;52.006;4.350;2023-05-10T10:33:39;15.10;99.90
24860;DHT22;12936;52.006;4.350;2023-05-10T10:36:08;15.10;99.90
24860;DHT22;12936;52.006;4.350;2023-05-10T10:38:38;15.10;99.90
24860;DHT22;12936;52.006;4.350;2023-05-10T10:41:33;15.10;99.90
24860;DHT22;12936;52.006;4.350;2023-05-10T10:47:04;15.00;99.90
24860;DHT22;12936;52.006;4.350;2023-05-10T10:49:43;15.00;99.90
24860;DHT22;12936;52.006;4.350;2023-05-10T10:52:20;15.00;99.90
24860;DHT22;12936;52.006;4.350;2023-05-10T10:54:52;15.00;99.90
24860;DHT22;12936;52.006;4.350;2023-05-10T10:57:21;15.00;99.90
24860;DHT22;12936;52.006;4.350;2023-05-10T10:59:49;15.00;99.90
24860;DHT22;12936;52.006;4.350;2023-05-10T11:02:34;15.00;99.90
24860;DHT22;12936;52.006;4.350;2023-05-10T11:08:27;15.00;99.90
24860;DHT22;12936;52.006;4.350;2023-05-10T11:11:06;15.00;99.90
24860;DHT22;12936;52.006;4.350;2023-05-10T11:13:39;15.00;99.90
24860;DHT22;12936;52.006;4.350;2023-05-10T11:16:12;15.10;99.90
24860;DHT22;12936;52.006;4.350;2023-05-10T11:18:52;15.10;99.90
24860;DHT22;12936;52.006;4.350;2023-05-10T11:21:21;15.20;99.90
24860;DHT22;12936;52.006;4.350;2023-05-10T11:23:51;15.20;99.90
24860;DHT22;12936;52.006;4.350;2023-05-10T11:26:23;15.20;99.90
24860;DHT22;12936;52.006;4.350;2023-05-10T11:28:53;15.30;99.90
24860;DHT22;12936;52.006;4.350;2023-05-10T11:31:23;15.30;99.90
24860;DHT22;12936;52.006;4.350;2023-05-10T11:33:56;15.30;99.90
24860;DHT22;12936;52.006;4.350;2023-05-10T11:36:25;15.40;99.90
24860;DHT22;12936;52.006;4.350;2023-05-10T11:38:55;15.40;99.90
24860;DHT22;12936;52.006;4.350;2023-05-10T11:41:24;15.40;99.90
24860;DHT22;12936;52.006;4.350;2023-05-10T11:43:53;15.50;99.90
24860;DHT22;12936;52.006;4.350;2023-05-10T11:46:23;15.60;99.90
24860;DHT22;12936;52.006;4.350;2023-05-10T11:48:53;15.60;99.90
24860;DHT22;12936;52.006;4.350;2023-05-10T11:51:23;15.60;99.90
24860;DHT22;12936;52.006;4.350;2023-05-10T11:53:53;15.70;99.90
24860;DHT22;12936;52.006;4.350;2023-05-10T11:56:22;15.70;99.90
24860;DHT22;12936;52.006;4.350;2023-05-10T11:58:55;15.70;99.90
24860;DHT22;12936;52.006;4.350;2023-05-10T12:01:24;15.70;99.90
24860;DHT22;12936;52.006;4.350;2023-05-10T12:03:54;15.70;99.90
24860;DHT22;12936;52.006;4.350;2023-05-10T12:06:29;15.70;99.90
24860;DHT22;12936;52.006;4.350;2023-05-10T12:08:58;15.70;99.90
24860;DHT22;12936;52.006;4.350;2023-05-10T12:11:28;15.70;99.90
24860;DHT22;12936;52.006;4.350;2023-05-10T12:13:56;15.60;99.90
24860;DHT22;12936;52.006;4.350;2023-05-10T12:16:25;15.70;99.90
24860;DHT22;12936;52.006;4.350;2023-05-10T12:18:57;15.60;99.90
24860;DHT22;12936;52.006;4.350;2023-05-10T12:21:28;15.70;99.90
24860;DHT22;12936;52.006;4.350;2023-05-10T12:24:00;15.70;99.90
24860;DHT22;12936;52.006;4.350;2023-05-10T12:26:29;15.70;99.90
24860;DHT22;12936;52.006;4.350;2023-05-10T12:29:12;15.70;99.90
24860;DHT22;12936;52.006;4.350;2023-05-10T12:31:54;15.70;99.90
24860;DHT22;12936;52.006;4.350;2023-05-10T12:34:24;15.70;99.90
24860;DHT22;12936;52.006;4.350;2023-05-10T12:37:14;15.70;99.90
24860;DHT22;12936;52.006;4.350;2023-05-10T12:39:43;15.70;99.90
24860;DHT22;12936;52.006;4.350;2023-05-10T12:42:12;15.80;99.90
24860;DHT22;12936;52.006;4.350;2023-05-10T12:44:40;15.90;99.90
24860;DHT22;12936;52.006;4.350;2023-05-10T12:47:08;15.90;99.90
24860;DHT22;12936;52.006;4.350;2023-05-10T12:49:37;16.00;99.90
24860;DHT22;12936;52.006;4.350;2023-05-10T12:52:05;16.00;99.90
24860;DHT22;12936;52.006;4.350;2023-05-10T12:54:35;16.00;99.90
24860;DHT22;12936;52.006;4.350;2023-05-10T12:57:03;16.00;99.90
24860;DHT22;12936;52.006;4.350;2023-05-10T12:59:31;16.10;99.90
24860;DHT22;12936;52.006;4.350;2023-05-10T13:02:03;16.10;99.90
24860;DHT22;12936;52.006;4.350;2023-05-10T13:04:31;16.10;99.90
24860;DHT22;12936;52.006;4.350;2023-05-10T13:06:59;16.10;99.90
24860;DHT22;12936;52.006;4.350;2023-05-10T13:09:27;16.00;99.90
24860;DHT22;12936;52.006;4.350;2023-05-10T13:12:00;16.10;99.90
24860;DHT22;12936;52.006;4.350;2023-05-10T13:14:29;16.10;99.90
24860;DHT22;12936;52.006;4.350;2023-05-10T13:16:57;16.10;99.90
24860;DHT22;12936;52.006;4.350;2023-05-10T13:19:26;16.10;99.90
24860;DHT22;12936;52.006;4.350;2023-05-10T13:22:14;16.10;99.90
24860;DHT22;12936;52.006;4.350;2023-05-10T13:24:54;16.00;99.90
24860;DHT22;12936;52.006;4.350;2023-05-10T13:27:24;16.00;99.90
24860;DHT22;12936;52.006;4.350;2023-05-10T13:29:51;16.00;99.90
24860;DHT22;12936;52.006;4.350;2023-05-10T13:32:19;16.00;99.90
24860;DHT22;12936;52.006;4.350;2023-05-10T13:34:48;16.00;99.90
24860;DHT22;12936;52.006;4.350;2023-05-10T13:37:16;16.00;99.90
24860;DHT22;12936;52.006;4.350;2023-05-10T13:39:44;16.00;99.90
24860;DHT22;12936;52.006;4.350;2023-05-10T13:42:12;16.00;99.90
24860;DHT22;12936;52.006;4.350;2023-05-10T13:44:41;16.00;99.90
24860;DHT22;12936;52.006;4.350;2023-05-10T13:47:09;16.00;99.90
24860;DHT22;12936;52.006;4.350;2023-05-10T13:49:37;16.00;99.90
24860;DHT22;12936;52.006;4.350;2023-05-10T13:52:05;16.00;99.90
24860;DHT22;12936;52.006;4.350;2023-05-10T13:54:34;16.00;99.90
24860;DHT22;12936;52.006;4.350;2023-05-10T13:57:02;16.00;99.90
24860;DHT22;12936;52.006;4.350;2023-05-10T13:59:31;16.10;99.90
24860;DHT22;12936;52.006;4.350;2023-05-10T14:02:00;16.10;99.90
24860;DHT22;12936;52.006;4.350;2023-05-10T14:04:30;16.10;99.90
24860;DHT22;12936;52.006;4.350;2023-05-10T14:06:58;16.00;99.90
24860;DHT22;12936;52.006;4.350;2023-05-10T14:09:26;16.10;99.90
24860;DHT22;12936;52.006;4.350;2023-05-10T14:11:54;16.10;99.90
24860;DHT22;12936;52.006;4.350;2023-05-10T14:14:22;16.10;99.90
24860;DHT22;12936;52.006;4.350;2023-05-10T14:16:50;16.10;99.90
24860;DHT22;12936;52.006;4.350;2023-05-10T14:19:20;16.10;99.90
24860;DHT22;12936;52.006;4.350;2023-05-10T14:21:48;16.10;99.90
24860;DHT22;12936;52.006;4.350;2023-05-10T14:24:16;16.10;99.90
24860;DHT22;12936;52.006;4.350;2023-05-10T14:26:44;16.10;99.90
24860;DHT22;12936;52.006;4.350;2023-05-10T14:29:12;16.20;99.90
24860;DHT22;12936;52.006;4.350;2023-05-10T14:31:40;16.20;99.90
24860;DHT22;12936;52.006;4.350;2023-05-10T14:34:08;16.20;99.90
24860;DHT22;12936;52.006;4.350;2023-05-10T14:36:38;16.30;99.90
24860;DHT22;12936;52.006;4.350;2023-05-10T14:39:06;16.30;99.90
24860;DHT22;12936;52.006;4.350;2023-05-10T14:41:34;16.40;99.90
24860;DHT22;12936;52.006;4.350;2023-05-10T14:44:02;16.40;99.90
24860;DHT22;12936;52.006;4.350;2023-05-10T14:46:30;16.50;99.90
24860;DHT22;12936;52.006;4.350;2023-05-10T14:48:58;16.50;99.90
24860;DHT22;12936;52.006;4.350;2023-05-10T14:51:27;16.50;99.90
24860;DHT22;12936;52.006;4.350;2023-05-10T14:53:56;16.50;99.90
24860;DHT22;12936;52.006;4.350;2023-05-10T14:56:24;16.50;99.90
24860;DHT22;12936;52.006;4.350;2023-05-10T14:58:54;16.50;99.90
24860;DHT22;12936;52.006;4.350;2023-05-10T15:01:22;16.40;99.90
24860;DHT22;12936;52.006;4.350;2023-05-10T15:03:51;16.50;99.90
24860;DHT22;12936;52.006;4.350;2023-05-10T15:06:23;16.40;99.90
24860;DHT22;12936;52.006;4.350;2023-05-10T15:08:52;16.40;99.90
24860;DHT22;12936;52.006;4.350;2023-05-10T15:11:21;16.40;99.90
24860;DHT22;12936;52.006;4.350;2023-05-10T15:13:49;16.30;99.90
24860;DHT22;12936;52.006;4.350;2023-05-10T15:16:17;16.30;99.90
24860;DHT22;12936;52.006;4.350;2023-05-10T15:18:46;16.30;99.90
24860;DHT22;12936;52.006;4.350;2023-05-10T15:21:15;16.30;99.90
24860;DHT22;12936;52.006;4.350;2023-05-10T15:23:43;16.30;99.90
24860;DHT22;12936;52.006;4.350;2023-05-10T15:26:13;16.30;99.90
24860;DHT22;12936;52.006;4.350;2023-05-10T15:28:42;16.30;99.90
24860;DHT22;12936;52.006;4.350;2023-05-10T15:31:11;16.40;99.90
24860;DHT22;12936;52.006;4.350;2023-05-10T15:33:39;16.50;99.90
24860;DHT22;12936;52.006;4.350;2023-05-10T15:36:07;16.60;99.90
24860;DHT22;12936;52.006;4.350;2023-05-10T15:38:35;16.70;99.90
24860;DHT22;12936;52.006;4.350;2023-05-10T15:41:04;16.70;99.90
24860;DHT22;12936;52.006;4.350;2023-05-10T15:43:32;16.80;99.90
24860;DHT22;12936;52.006;4.350;2023-05-10T15:46:01;16.80;99.90
24860;DHT22;12936;52.006;4.350;2023-05-10T15:48:29;16.90;99.90
24860;DHT22;12936;52.006;4.350;2023-05-10T15:50:58;17.00;99.90
24860;DHT22;12936;52.006;4.350;2023-05-10T15:53:26;17.00;99.90
24860;DHT22;12936;52.006;4.350;2023-05-10T15:55:54;17.00;99.90
24860;DHT22;12936;52.006;4.350;2023-05-10T15:58:22;17.00;99.90
24860;DHT22;12936;52.006;4.350;2023-05-10T16:00:50;17.00;99.90
24860;DHT22;12936;52.006;4.350;2023-05-10T16:03:19;17.10;99.90
24860;DHT22;12936;52.006;4.350;2023-05-10T16:05:48;17.10;99.90